Estherville, Iowa
Current Conditions -  °F | °C
As of 3:52 PM on Friday 24 Oct 2014 (Local Time) from KEST Reporting Station
Clear Clear  
Wind Chill: 73°   Ceiling: Unl
Heat Index: 73°   Visibility: 10mi
Dew Point: 48°   Wind: 7mph
Humidity: 41%   Direction: 290°WNW
Pressure: 29.86"   Gusts: NA
Location:  43.4°N, 94.84°W
Report Text: KEST 242052Z AUTO 29006KT 10SM CLR 23/09 A2986 RMK AO2 SLP110 T02280089 55006
Loading
Personal Weather Stations






























Interactive Weather Map
Tropical Storm Tracking
New forecast layout! Learn more

10-Day Weather Forecast

Advertisements
Track Severe Weather on mobile